sensor_id;sensor_type;location;lat;lon;timestamp;temperature;humidity
42147;DHT22;27815;43.410;11.852;2022-09-09T00:07:41;21.10;79.20
42147;DHT22;27815;43.410;11.852;2022-09-09T00:11:52;21.10;78.80
42147;DHT22;27815;43.410;11.852;2022-09-09T00:16:17;21.10;79.20
42147;DHT22;27815;43.410;11.852;2022-09-09T00:21:01;21.10;79.30
42147;DHT22;27815;43.410;11.852;2022-09-09T00:25:15;21.10;78.80
42147;DHT22;27815;43.410;11.852;2022-09-09T00:30:29;21.20;79.60
42147;DHT22;27815;43.410;11.852;2022-09-09T00:34:14;21.20;79.80
42147;DHT22;27815;43.410;11.852;2022-09-09T00:38:38;21.30;79.60
42147;DHT22;27815;43.410;11.852;2022-09-09T00:42:44;21.30;79.70
42147;DHT22;27815;43.410;11.852;2022-09-09T01:00:21;21.40;79.40
42147;DHT22;27815;43.410;11.852;2022-09-09T01:04:32;21.40;80.00
42147;DHT22;27815;43.410;11.852;2022-09-09T01:09:11;21.40;80.00
42147;DHT22;27815;43.410;11.852;2022-09-09T01:13:36;21.30;79.60
42147;DHT22;27815;43.410;11.852;2022-09-09T01:18:00;21.30;79.50
42147;DHT22;27815;43.410;11.852;2022-09-09T01:26:45;21.30;79.60
42147;DHT22;27815;43.410;11.852;2022-09-09T01:30:59;21.20;79.80
42147;DHT22;27815;43.410;11.852;2022-09-09T01:35:31;21.20;79.90
42147;DHT22;27815;43.410;11.852;2022-09-09T01:39:40;21.30;79.50
42147;DHT22;27815;43.410;11.852;2022-09-09T01:43:47;21.30;79.80
42147;DHT22;27815;43.410;11.852;2022-09-09T01:47:52;21.30;79.70
42147;DHT22;27815;43.410;11.852;2022-09-09T01:52:11;21.30;79.80
42147;DHT22;27815;43.410;11.852;2022-09-09T02:00:38;21.30;79.60
42147;DHT22;27815;43.410;11.852;2022-09-09T02:04:47;21.40;79.70
42147;DHT22;27815;43.410;11.852;2022-09-09T02:08:56;21.30;79.70
42147;DHT22;27815;43.410;11.852;2022-09-09T02:13:14;21.30;79.70
42147;DHT22;27815;43.410;11.852;2022-09-09T02:17:25;21.30;79.60
42147;DHT22;27815;43.410;11.852;2022-09-09T02:21:44;21.20;80.00
42147;DHT22;27815;43.410;11.852;2022-09-09T02:25:48;21.10;80.00
42147;DHT22;27815;43.410;11.852;2022-09-09T02:29:59;21.20;80.10
42147;DHT22;27815;43.410;11.852;2022-09-09T02:34:18;21.20;80.20
42147;DHT22;27815;43.410;11.852;2022-09-09T02:38:26;21.10;80.30
42147;DHT22;27815;43.410;11.852;2022-09-09T02:42:41;21.10;80.40
42147;DHT22;27815;43.410;11.852;2022-09-09T02:51:10;21.10;80.50
42147;DHT22;27815;43.410;11.852;2022-09-09T02:59:34;21.10;80.40
42147;DHT22;27815;43.410;11.852;2022-09-09T03:03:37;21.00;80.20
42147;DHT22;27815;43.410;11.852;2022-09-09T03:07:44;21.00;80.30
42147;DHT22;27815;43.410;11.852;2022-09-09T03:11:49;21.00;80.40
42147;DHT22;27815;43.410;11.852;2022-09-09T03:15:53;21.00;80.40
42147;DHT22;27815;43.410;11.852;2022-09-09T03:19:56;21.00;80.30
42147;DHT22;27815;43.410;11.852;2022-09-09T03:24:01;21.00;80.30
42147;DHT22;27815;43.410;11.852;2022-09-09T03:28:06;21.00;80.10
42147;DHT22;27815;43.410;11.852;2022-09-09T03:32:09;21.00;80.20
42147;DHT22;27815;43.410;11.852;2022-09-09T03:36:14;21.00;80.30
42147;DHT22;27815;43.410;11.852;2022-09-09T03:40:18;20.90;80.60
42147;DHT22;27815;43.410;11.852;2022-09-09T03:44:22;20.80;80.70
42147;DHT22;27815;43.410;11.852;2022-09-09T03:48:25;20.80;80.70
42147;DHT22;27815;43.410;11.852;2022-09-09T03:52:31;20.90;80.70
42147;DHT22;27815;43.410;11.852;2022-09-09T03:56:34;20.80;80.70
42147;DHT22;27815;43.410;11.852;2022-09-09T04:00:37;20.80;80.90
42147;DHT22;27815;43.410;11.852;2022-09-09T04:04:45;20.90;80.90
42147;DHT22;27815;43.410;11.852;2022-09-09T04:08:48;20.80;81.20
42147;DHT22;27815;43.410;11.852;2022-09-09T04:12:55;20.90;81.40
42147;DHT22;27815;43.410;11.852;2022-09-09T04:16:58;21.00;81.50
42147;DHT22;27815;43.410;11.852;2022-09-09T04:21:02;21.00;81.50
42147;DHT22;27815;43.410;11.852;2022-09-09T04:25:07;21.00;81.40
42147;DHT22;27815;43.410;11.852;2022-09-09T04:29:10;21.00;81.30
42147;DHT22;27815;43.410;11.852;2022-09-09T04:33:15;21.00;81.30
42147;DHT22;27815;43.410;11.852;2022-09-09T04:37:17;21.00;81.40
42147;DHT22;27815;43.410;11.852;2022-09-09T04:41:20;21.10;81.40
42147;DHT22;27815;43.410;11.852;2022-09-09T04:45:26;21.10;81.40
42147;DHT22;27815;43.410;11.852;2022-09-09T04:49:29;21.10;81.30
42147;DHT22;27815;43.410;11.852;2022-09-09T04:53:34;21.10;81.50
42147;DHT22;27815;43.410;11.852;2022-09-09T04:57:37;21.10;81.50
42147;DHT22;27815;43.410;11.852;2022-09-09T05:01:40;21.20;81.60
42147;DHT22;27815;43.410;11.852;2022-09-09T05:05:43;21.20;81.60
42147;DHT22;27815;43.410;11.852;2022-09-09T05:09:47;21.20;81.60
42147;DHT22;27815;43.410;11.852;2022-09-09T05:13:52;21.20;81.70
42147;DHT22;27815;43.410;11.852;2022-09-09T05:17:59;21.30;81.70
42147;DHT22;27815;43.410;11.852;2022-09-09T05:22:05;21.30;81.70
42147;DHT22;27815;43.410;11.852;2022-09-09T05:26:17;21.20;81.50
42147;DHT22;27815;43.410;11.852;2022-09-09T05:30:23;21.00;81.50
42147;DHT22;27815;43.410;11.852;2022-09-09T05:34:29;20.90;81.60
42147;DHT22;27815;43.410;11.852;2022-09-09T05:38:33;20.90;81.70
42147;DHT22;27815;43.410;11.852;2022-09-09T05:42:36;20.70;81.70
42147;DHT22;27815;43.410;11.852;2022-09-09T05:46:39;20.70;81.70
42147;DHT22;27815;43.410;11.852;2022-09-09T05:50:43;20.60;81.80
42147;DHT22;27815;43.410;11.852;2022-09-09T05:54:48;20.60;81.90
42147;DHT22;27815;43.410;11.852;2022-09-09T05:58:53;20.80;81.70
42147;DHT22;27815;43.410;11.852;2022-09-09T06:02:59;20.80;81.60
42147;DHT22;27815;43.410;11.852;2022-09-09T06:07:02;20.90;81.60
42147;DHT22;27815;43.410;11.852;2022-09-09T06:11:17;20.90;82.00
42147;DHT22;27815;43.410;11.852;2022-09-09T06:15:20;20.80;82.10
42147;DHT22;27815;43.410;11.852;2022-09-09T06:19:23;20.80;82.30
42147;DHT22;27815;43.410;11.852;2022-09-09T06:23:31;21.00;82.50
42147;DHT22;27815;43.410;11.852;2022-09-09T06:27:34;21.20;82.30
42147;DHT22;27815;43.410;11.852;2022-09-09T06:31:37;21.50;82.20
42147;DHT22;27815;43.410;11.852;2022-09-09T06:35:54;21.70;81.90
42147;DHT22;27815;43.410;11.852;2022-09-09T06:40:00;22.00;81.80
42147;DHT22;27815;43.410;11.852;2022-09-09T06:44:04;22.20;81.20
42147;DHT22;27815;43.410;11.852;2022-09-09T06:48:14;22.50;81.00
42147;DHT22;27815;43.410;11.852;2022-09-09T06:52:17;22.70;80.50
42147;DHT22;27815;43.410;11.852;2022-09-09T06:56:25;22.90;80.10
42147;DHT22;27815;43.410;11.852;2022-09-09T07:00:31;23.00;80.00
42147;DHT22;27815;43.410;11.852;2022-09-09T07:04:34;23.10;79.60
42147;DHT22;27815;43.410;11.852;2022-09-09T07:08:39;23.20;79.30
42147;DHT22;27815;43.410;11.852;2022-09-09T07:12:42;23.40;78.90
42147;DHT22;27815;43.410;11.852;2022-09-09T07:16:47;23.60;78.60
42147;DHT22;27815;43.410;11.852;2022-09-09T07:20:55;23.80;78.10
42147;DHT22;27815;43.410;11.852;2022-09-09T07:25:00;24.00;77.30
42147;DHT22;27815;43.410;11.852;2022-09-09T07:29:05;24.20;77.50
42147;DHT22;27815;43.410;11.852;2022-09-09T07:33:09;24.40;77.20
42147;DHT22;27815;43.410;11.852;2022-09-09T07:37:12;24.50;76.60
42147;DHT22;27815;43.410;11.852;2022-09-09T07:45:59;24.70;76.40
42147;DHT22;27815;43.410;11.852;2022-09-09T07:50:04;24.90;75.80
42147;DHT22;27815;43.410;11.852;2022-09-09T07:54:10;25.00;75.80
42147;DHT22;27815;43.410;11.852;2022-09-09T07:58:16;25.10;74.90
42147;DHT22;27815;43.410;11.852;2022-09-09T08:02:19;25.40;74.40
42147;DHT22;27815;43.410;11.852;2022-09-09T08:06:22;25.60;72.60
42147;DHT22;27815;43.410;11.852;2022-09-09T08:10:27;25.70;72.40
42147;DHT22;27815;43.410;11.852;2022-09-09T08:14:31;25.90;72.20
42147;DHT22;27815;43.410;11.852;2022-09-09T08:18:34;26.00;70.30
42147;DHT22;27815;43.410;11.852;2022-09-09T08:22:37;26.10;69.40
42147;DHT22;27815;43.410;11.852;2022-09-09T08:26:46;26.20;68.90
42147;DHT22;27815;43.410;11.852;2022-09-09T08:30:50;26.30;69.00
42147;DHT22;27815;43.410;11.852;2022-09-09T08:34:57;26.50;67.40
42147;DHT22;27815;43.410;11.852;2022-09-09T08:39:04;26.70;66.90
42147;DHT22;27815;43.410;11.852;2022-09-09T08:43:08;26.70;68.30
42147;DHT22;27815;43.410;11.852;2022-09-09T08:51:50;27.00;65.20
42147;DHT22;27815;43.410;11.852;2022-09-09T08:55:58;27.00;64.20
42147;DHT22;27815;43.410;11.852;2022-09-09T09:00:11;27.10;62.20
42147;DHT22;27815;43.410;11.852;2022-09-09T09:09:11;27.30;61.50
42147;DHT22;27815;43.410;11.852;2022-09-09T09:13:33;27.40;60.20
42147;DHT22;27815;43.410;11.852;2022-09-09T09:17:39;27.50;58.60
42147;DHT22;27815;43.410;11.852;2022-09-09T09:21:45;27.70;56.80
42147;DHT22;27815;43.410;11.852;2022-09-09T09:25:54;28.00;55.30
42147;DHT22;27815;43.410;11.852;2022-09-09T09:30:20;28.10;54.90
42147;DHT22;27815;43.410;11.852;2022-09-09T09:34:37;28.00;56.00
42147;DHT22;27815;43.410;11.852;2022-09-09T09:38:56;28.00;52.70
42147;DHT22;27815;43.410;11.852;2022-09-09T09:43:34;27.70;53.80
42147;DHT22;27815;43.410;11.852;2022-09-09T09:47:40;27.50;54.10
42147;DHT22;27815;43.410;11.852;2022-09-09T09:51:47;27.80;53.60
42147;DHT22;27815;43.410;11.852;2022-09-09T09:56:03;27.90;55.10
42147;DHT22;27815;43.410;11.852;2022-09-09T10:00:16;28.10;55.00
42147;DHT22;27815;43.410;11.852;2022-09-09T10:04:26;28.40;55.00
42147;DHT22;27815;43.410;11.852;2022-09-09T10:08:43;28.70;51.40
42147;DHT22;27815;43.410;11.852;2022-09-09T10:13:04;28.90;50.30
42147;DHT22;27815;43.410;11.852;2022-09-09T10:17:33;29.10;49.00
42147;DHT22;27815;43.410;11.852;2022-09-09T10:34:56;29.50;47.40
42147;DHT22;27815;43.410;11.852;2022-09-09T10:39:36;29.40;46.00
42147;DHT22;27815;43.410;11.852;2022-09-09T10:44:01;29.50;45.80
42147;DHT22;27815;43.410;11.852;2022-09-09T10:56:30;29.50;45.20
42147;DHT22;27815;43.410;11.852;2022-09-09T11:00:40;29.80;44.10
42147;DHT22;27815;43.410;11.852;2022-09-09T11:08:53;30.10;44.50
42147;DHT22;27815;43.410;11.852;2022-09-09T11:13:02;30.00;44.40
42147;DHT22;27815;43.410;11.852;2022-09-09T11:17:16;30.00;43.70
42147;DHT22;27815;43.410;11.852;2022-09-09T11:21:28;30.10;44.50
42147;DHT22;27815;43.410;11.852;2022-09-09T11:25:33;30.20;43.10
42147;DHT22;27815;43.410;11.852;2022-09-09T11:42:49;29.90;42.70
42147;DHT22;27815;43.410;11.852;2022-09-09T11:47:03;29.50;43.40
42147;DHT22;27815;43.410;11.852;2022-09-09T11:55:31;29.70;43.80
42147;DHT22;27815;43.410;11.852;2022-09-09T11:59:35;29.80;42.80
42147;DHT22;27815;43.410;11.852;2022-09-09T12:07:56;30.00;40.40
42147;DHT22;27815;43.410;11.852;2022-09-09T12:12:22;30.00;40.50
42147;DHT22;27815;43.410;11.852;2022-09-09T12:16:36;30.30;41.80
42147;DHT22;27815;43.410;11.852;2022-09-09T12:21:34;30.30;41.00
42147;DHT22;27815;43.410;11.852;2022-09-09T12:25:29;30.30;40.10
42147;DHT22;27815;43.410;11.852;2022-09-09T12:29:55;30.30;40.30
42147;DHT22;27815;43.410;11.852;2022-09-09T12:38:34;30.50;40.60
42147;DHT22;27815;43.410;11.852;2022-09-09T12:42:40;30.50;37.00
42147;DHT22;27815;43.410;11.852;2022-09-09T12:46:45;30.40;36.70
42147;DHT22;27815;43.410;11.852;2022-09-09T12:50:49;30.40;37.90
42147;DHT22;27815;43.410;11.852;2022-09-09T12:54:53;30.40;38.20
42147;DHT22;27815;43.410;11.852;2022-09-09T12:58:57;30.30;34.20
42147;DHT22;27815;43.410;11.852;2022-09-09T13:03:03;30.20;34.70
42147;DHT22;27815;43.410;11.852;2022-09-09T13:07:18;30.20;34.60
42147;DHT22;27815;43.410;11.852;2022-09-09T13:11:42;30.30;35.40
42147;DHT22;27815;43.410;11.852;2022-09-09T13:15:57;30.40;36.20
42147;DHT22;27815;43.410;11.852;2022-09-09T13:20:01;30.40;35.90
42147;DHT22;27815;43.410;11.852;2022-09-09T13:24:06;30.40;34.80
42147;DHT22;27815;43.410;11.852;2022-09-09T13:28:25;30.30;33.90
42147;DHT22;27815;43.410;11.852;2022-09-09T13:32:35;30.20;34.00
42147;DHT22;27815;43.410;11.852;2022-09-09T13:36:38;30.20;34.20
42147;DHT22;27815;43.410;11.852;2022-09-09T13:40:53;30.20;33.10
42147;DHT22;27815;43.410;11.852;2022-09-09T13:44:59;30.30;33.50
42147;DHT22;27815;43.410;11.852;2022-09-09T13:53:12;30.20;32.80
42147;DHT22;27815;43.410;11.852;2022-09-09T13:57:21;30.10;31.80
42147;DHT22;27815;43.410;11.852;2022-09-09T14:01:25;30.00;32.90
42147;DHT22;27815;43.410;11.852;2022-09-09T14:05:32;29.90;32.70
42147;DHT22;27815;43.410;11.852;2022-09-09T14:09:36;29.80;34.00
42147;DHT22;27815;43.410;11.852;2022-09-09T14:13:39;29.80;32.20
42147;DHT22;27815;43.410;11.852;2022-09-09T14:17:42;29.80;31.90
42147;DHT22;27815;43.410;11.852;2022-09-09T14:21:45;29.70;32.60
42147;DHT22;27815;43.410;11.852;2022-09-09T14:25:48;29.60;32.80
42147;DHT22;27815;43.410;11.852;2022-09-09T14:29:51;29.60;32.50
42147;DHT22;27815;43.410;11.852;2022-09-09T14:33:56;29.60;32.20
42147;DHT22;27815;43.410;11.852;2022-09-09T14:37:59;29.60;31.70
42147;DHT22;27815;43.410;11.852;2022-09-09T14:42:03;29.60;31.60
42147;DHT22;27815;43.410;11.852;2022-09-09T14:46:15;29.60;32.10
42147;DHT22;27815;43.410;11.852;2022-09-09T14:50:20;29.60;32.40
42147;DHT22;27815;43.410;11.852;2022-09-09T14:54:23;29.70;32.60
42147;DHT22;27815;43.410;11.852;2022-09-09T14:58:30;29.70;33.10
42147;DHT22;27815;43.410;11.852;2022-09-09T15:02:34;29.80;33.70
42147;DHT22;27815;43.410;11.852;2022-09-09T15:06:36;29.70;34.20
42147;DHT22;27815;43.410;11.852;2022-09-09T15:10:41;29.60;34.40
42147;DHT22;27815;43.410;11.852;2022-09-09T15:14:45;29.60;34.20
42147;DHT22;27815;43.410;11.852;2022-09-09T15:18:51;29.50;33.40
42147;DHT22;27815;43.410;11.852;2022-09-09T15:22:55;29.30;33.20
42147;DHT22;27815;43.410;11.852;2022-09-09T15:26:59;29.20;34.30
42147;DHT22;27815;43.410;11.852;2022-09-09T15:31:05;29.30;34.70
42147;DHT22;27815;43.410;11.852;2022-09-09T15:35:09;29.10;34.20
42147;DHT22;27815;43.410;11.852;2022-09-09T15:39:15;29.00;34.90
42147;DHT22;27815;43.410;11.852;2022-09-09T15:43:18;29.00;35.70
42147;DHT22;27815;43.410;11.852;2022-09-09T15:47:21;29.10;36.40
42147;DHT22;27815;43.410;11.852;2022-09-09T15:51:25;29.00;36.20
42147;DHT22;27815;43.410;11.852;2022-09-09T15:55:45;29.00;36.20
42147;DHT22;27815;43.410;11.852;2022-09-09T15:59:48;29.00;35.90
42147;DHT22;27815;43.410;11.852;2022-09-09T16:03:51;29.20;35.70
42147;DHT22;27815;43.410;11.852;2022-09-09T16:07:54;29.20;35.60
42147;DHT22;27815;43.410;11.852;2022-09-09T16:11:58;29.50;35.40
42147;DHT22;27815;43.410;11.852;2022-09-09T16:16:02;29.50;35.20
42147;DHT22;27815;43.410;11.852;2022-09-09T16:20:06;29.40;35.50
42147;DHT22;27815;43.410;11.852;2022-09-09T16:24:16;29.30;36.30
42147;DHT22;27815;43.410;11.852;2022-09-09T16:28:20;29.30;36.70
42147;DHT22;27815;43.410;11.852;2022-09-09T16:32:23;29.20;37.00
42147;DHT22;27815;43.410;11.852;2022-09-09T16:36:29;29.00;37.50
42147;DHT22;27815;43.410;11.852;2022-09-09T16:40:37;28.90;38.30
42147;DHT22;27815;43.410;11.852;2022-09-09T16:44:39;29.10;38.00
42147;DHT22;27815;43.410;11.852;2022-09-09T16:48:45;29.40;37.70
42147;DHT22;27815;43.410;11.852;2022-09-09T16:52:48;29.50;37.90
42147;DHT22;27815;43.410;11.852;2022-09-09T16:56:51;29.80;37.60
42147;DHT22;27815;43.410;11.852;2022-09-09T17:00:58;30.00;37.10
42147;DHT22;27815;43.410;11.852;2022-09-09T17:05:01;29.90;37.30
42147;DHT22;27815;43.410;11.852;2022-09-09T17:09:07;29.80;37.80
42147;DHT22;27815;43.410;11.852;2022-09-09T17:13:10;30.00;38.40
42147;DHT22;27815;43.410;11.852;2022-09-09T17:17:14;29.70;38.60
42147;DHT22;27815;43.410;11.852;2022-09-09T17:21:33;29.10;39.20
42147;DHT22;27815;43.410;11.852;2022-09-09T17:25:37;28.50;40.60
42147;DHT22;27815;43.410;11.852;2022-09-09T17:29:40;28.00;41.20
42147;DHT22;27815;43.410;11.852;2022-09-09T17:33:46;27.50;42.30
42147;DHT22;27815;43.410;11.852;2022-09-09T17:37:52;27.20;42.50
42147;DHT22;27815;43.410;11.852;2022-09-09T17:41:54;26.80;43.30
42147;DHT22;27815;43.410;11.852;2022-09-09T17:46:15;26.50;44.00
42147;DHT22;27815;43.410;11.852;2022-09-09T17:50:19;26.30;44.20
42147;DHT22;27815;43.410;11.852;2022-09-09T17:54:22;26.00;45.90
42147;DHT22;27815;43.410;11.852;2022-09-09T17:58:25;25.70;46.40
42147;DHT22;27815;43.410;11.852;2022-09-09T18:02:28;25.50;47.10
42147;DHT22;27815;43.410;11.852;2022-09-09T18:06:35;25.30;48.20
42147;DHT22;27815;43.410;11.852;2022-09-09T18:10:39;25.20;48.70
42147;DHT22;27815;43.410;11.852;2022-09-09T18:14:42;25.10;49.50
42147;DHT22;27815;43.410;11.852;2022-09-09T18:18:45;25.00;50.00
42147;DHT22;27815;43.410;11.852;2022-09-09T18:22:48;25.00;50.60
42147;DHT22;27815;43.410;11.852;2022-09-09T18:26:51;24.90;51.40
42147;DHT22;27815;43.410;11.852;2022-09-09T18:30:54;24.80;51.20
42147;DHT22;27815;43.410;11.852;2022-09-09T18:34:57;24.80;51.70
42147;DHT22;27815;43.410;11.852;2022-09-09T18:39:02;24.70;52.10
42147;DHT22;27815;43.410;11.852;2022-09-09T18:43:06;24.70;52.50
42147;DHT22;27815;43.410;11.852;2022-09-09T18:47:09;24.60;52.80
42147;DHT22;27815;43.410;11.852;2022-09-09T18:51:14;24.50;53.10
42147;DHT22;27815;43.410;11.852;2022-09-09T18:55:18;24.50;53.70
42147;DHT22;27815;43.410;11.852;2022-09-09T18:59:22;24.50;53.90
42147;DHT22;27815;43.410;11.852;2022-09-09T19:03:26;24.50;54.30
42147;DHT22;27815;43.410;11.852;2022-09-09T19:07:30;24.50;54.50
42147;DHT22;27815;43.410;11.852;2022-09-09T19:11:33;24.30;55.00
42147;DHT22;27815;43.410;11.852;2022-09-09T19:15:36;24.30;54.90
42147;DHT22;27815;43.410;11.852;2022-09-09T19:19:39;24.20;55.50
42147;DHT22;27815;43.410;11.852;2022-09-09T19:23:52;24.10;55.50
42147;DHT22;27815;43.410;11.852;2022-09-09T19:27:56;24.00;55.90
42147;DHT22;27815;43.410;11.852;2022-09-09T19:32:01;23.90;56.20
42147;DHT22;27815;43.410;11.852;2022-09-09T19:36:25;23.90;56.70
42147;DHT22;27815;43.410;11.852;2022-09-09T19:40:31;23.80;56.80
42147;DHT22;27815;43.410;11.852;2022-09-09T19:44:36;23.60;57.30
42147;DHT22;27815;43.410;11.852;2022-09-09T19:48:40;23.50;57.90
42147;DHT22;27815;43.410;11.852;2022-09-09T19:52:43;23.30;58.50
42147;DHT22;27815;43.410;11.852;2022-09-09T19:56:46;23.20;58.60
42147;DHT22;27815;43.410;11.852;2022-09-09T20:00:50;23.20;58.50
42147;DHT22;27815;43.410;11.852;2022-09-09T20:04:53;23.10;59.10
42147;DHT22;27815;43.410;11.852;2022-09-09T20:09:01;23.00;59.80
42147;DHT22;27815;43.410;11.852;2022-09-09T20:13:05;22.90;60.00
42147;DHT22;27815;43.410;11.852;2022-09-09T20:17:08;22.80;60.30
42147;DHT22;27815;43.410;11.852;2022-09-09T20:21:17;22.80;60.10
42147;DHT22;27815;43.410;11.852;2022-09-09T20:25:22;22.80;60.10
42147;DHT22;27815;43.410;11.852;2022-09-09T20:29:26;22.80;60.10
42147;DHT22;27815;43.410;11.852;2022-09-09T20:33:28;22.90;60.20
42147;DHT22;27815;43.410;11.852;2022-09-09T20:37:32;22.90;60.00
42147;DHT22;27815;43.410;11.852;2022-09-09T20:41:36;22.90;60.00
42147;DHT22;27815;43.410;11.852;2022-09-09T20:45:40;22.80;59.80
42147;DHT22;27815;43.410;11.852;2022-09-09T20:49:45;22.90;59.60
42147;DHT22;27815;43.410;11.852;2022-09-09T20:53:56;23.00;59.70
42147;DHT22;27815;43.410;11.852;2022-09-09T20:58:00;23.00;59.40
42147;DHT22;27815;43.410;11.852;2022-09-09T21:02:03;23.00;59.50
42147;DHT22;27815;43.410;11.852;2022-09-09T21:06:07;23.20;58.90
42147;DHT22;27815;43.410;11.852;2022-09-09T21:10:10;23.20;58.70
42147;DHT22;27815;43.410;11.852;2022-09-09T21:14:13;23.30;58.90
42147;DHT22;27815;43.410;11.852;2022-09-09T21:18:17;23.40;58.60
42147;DHT22;27815;43.410;11.852;2022-09-09T21:22:20;23.40;58.00
42147;DHT22;27815;43.410;11.852;2022-09-09T21:26:24;23.50;58.50
42147;DHT22;27815;43.410;11.852;2022-09-09T21:30:27;23.40;59.10
42147;DHT22;27815;43.410;11.852;2022-09-09T21:34:42;23.40;60.00
42147;DHT22;27815;43.410;11.852;2022-09-09T21:38:45;23.30;59.40
42147;DHT22;27815;43.410;11.852;2022-09-09T21:42:48;23.30;59.30
42147;DHT22;27815;43.410;11.852;2022-09-09T21:46:51;23.30;59.50
42147;DHT22;27815;43.410;11.852;2022-09-09T21:50:54;23.30;59.70
42147;DHT22;27815;43.410;11.852;2022-09-09T21:54:57;23.20;59.80
42147;DHT22;27815;43.410;11.852;2022-09-09T21:59:00;23.10;60.00
42147;DHT22;27815;43.410;11.852;2022-09-09T22:03:06;23.10;59.50
42147;DHT22;27815;43.410;11.852;2022-09-09T22:07:10;23.10;59.70
42147;DHT22;27815;43.410;11.852;2022-09-09T22:11:19;23.20;59.90
42147;DHT22;27815;43.410;11.852;2022-09-09T22:15:24;23.20;59.60
42147;DHT22;27815;43.410;11.852;2022-09-09T22:19:27;23.10;59.90
42147;DHT22;27815;43.410;11.852;2022-09-09T22:23:30;23.20;60.50
42147;DHT22;27815;43.410;11.852;2022-09-09T22:27:33;23.10;60.10
42147;DHT22;27815;43.410;11.852;2022-09-09T22:31:36;23.00;60.50
42147;DHT22;27815;43.410;11.852;2022-09-09T22:35:40;23.00;60.90
42147;DHT22;27815;43.410;11.852;2022-09-09T22:39:46;23.00;60.70
42147;DHT22;27815;43.410;11.852;2022-09-09T22:48:39;22.90;61.30
42147;DHT22;27815;43.410;11.852;2022-09-09T22:53:13;22.80;61.50
42147;DHT22;27815;43.410;11.852;2022-09-09T22:57:58;22.80;61.50
42147;DHT22;27815;43.410;11.852;2022-09-09T23:03:02;22.70;61.90
42147;DHT22;27815;43.410;11.852;2022-09-09T23:07:37;22.60;61.30
42147;DHT22;27815;43.410;11.852;2022-09-09T23:12:07;22.50;61.90
42147;DHT22;27815;43.410;11.852;2022-09-09T23:16:37;22.40;62.00
42147;DHT22;27815;43.410;11.852;2022-09-09T23:22:13;22.30;62.20
42147;DHT22;27815;43.410;11.852;2022-09-09T23:27:01;22.30;61.50
42147;DHT22;27815;43.410;11.852;2022-09-09T23:31:31;22.30;61.10
42147;DHT22;27815;43.410;11.852;2022-09-09T23:36:03;22.40;61.20
42147;DHT22;27815;43.410;11.852;2022-09-09T23:40:26;22.40;60.60
42147;DHT22;27815;43.410;11.852;2022-09-09T23:45:01;22.50;60.60
42147;DHT22;27815;43.410;11.852;2022-09-09T23:49:23;22.50;59.90
42147;DHT22;27815;43.410;11.852;2022-09-09T23:53:46;22.50;59.90
42147;DHT22;27815;43.410;11.852;2022-09-09T23:58:07;22.50;59.40
